Time;durP1;ratioP1;P1;durP2;ratioP2;P2;SDS_P1;SDS_P2;PMS_P1;PMS_P2;Temp;Humidity;BMP_temperature;BMP_pressure;BME280_temperature;BME280_humidity;BME280_pressure;Samples;Min_cycle;Max_cycle;Signal;HPM_P1;HPM_P2
2022/12/13 00:02:24;;;;;;;38.67;34.50;;;;;;;;;;5005321;28;20440;-75
2022/12/13 00:04:50;;;;;;;44.13;38.22;;;;;;;;;;5004872;28;20663;-75
2022/12/13 00:07:15;;;;;;;47.90;39.35;;;;;;;;;;5006030;28;20693;-75
2022/12/13 00:09:41;;;;;;;51.80;41.28;;;;;;;;;;5009758;28;20069;-75
2022/12/13 00:12:07;;;;;;;37.97;33.17;;;;;;;;;;5003549;28;20025;-78
2022/12/13 00:14:32;;;;;;;37.67;33.58;;;;;;;;;;5014575;28;20034;-75
2022/12/13 00:16:58;;;;;;;50.65;45.22;;;;;;;;;;5012949;28;20452;-79
2022/12/13 00:19:23;;;;;;;67.03;55.90;;;;;;;;;;5014770;28;20052;-75
2022/12/13 00:21:49;;;;;;;44.72;37.90;;;;;;;;;;5006409;28;20436;-76
2022/12/13 00:24:14;;;;;;;35.55;31.13;;;;;;;;;;5006694;28;20431;-76
2022/12/13 00:26:40;;;;;;;40.30;33.72;;;;;;;;;;5014819;28;20226;-75
2022/12/13 00:29:06;;;;;;;49.42;41.65;;;;;;;;;;5006371;28;20432;-75
2022/12/13 00:31:31;;;;;;;67.90;55.25;;;;;;;;;;5009931;28;20152;-76
2022/12/13 00:33:57;;;;;;;61.63;49.75;;;;;;;;;;5014075;28;20046;-78
2022/12/13 00:36:23;;;;;;;59.50;48.97;;;;;;;;;;5013263;28;20068;-79
2022/12/13 00:38:59;;;;;;;62.20;53.30;;;;;;;;;;5010865;28;20475;-77
2022/12/13 00:41:25;;;;;;;64.28;51.47;;;;;;;;;;5014514;28;20444;-76
2022/12/13 00:43:50;;;;;;;58.28;45.40;;;;;;;;;;5011228;28;20070;-77
2022/12/13 00:46:17;;;;;;;73.15;55.38;;;;;;;;;;5007021;28;20022;-75
2022/12/13 00:48:43;;;;;;;67.57;50.92;;;;;;;;;;5012639;28;20353;-75
2022/12/13 00:51:09;;;;;;;49.33;39.47;;;;;;;;;;5015822;28;20084;-76
2022/12/13 00:53:35;;;;;;;49.72;41.33;;;;;;;;;;5015831;28;20026;-78
2022/12/13 00:56:00;;;;;;;74.90;60.05;;;;;;;;;;5014340;28;20032;-76
2022/12/13 00:58:26;;;;;;;80.97;65.40;;;;;;;;;;5015360;28;20033;-77
2022/12/13 01:00:51;;;;;;;93.00;78.80;;;;;;;;;;5006193;28;20445;-75
2022/12/13 01:03:19;;;;;;;50.92;44.15;;;;;;;;;;5013095;28;20037;-76
2022/12/13 01:05:47;;;;;;;100.13;74.28;;;;;;;;;;5003694;28;20487;-76
2022/12/13 01:08:13;;;;;;;76.75;57.05;;;;;;;;;;5007004;28;20129;-75
2022/12/13 01:10:47;;;;;;;85.78;66.55;;;;;;;;;;5010896;28;20109;-76
2022/12/13 01:13:13;;;;;;;55.10;43.88;;;;;;;;;;5014503;28;20055;-76
2022/12/13 01:15:45;;;;;;;61.15;48.53;;;;;;;;;;5008642;28;20017;-75
2022/12/13 01:18:11;;;;;;;54.83;43.92;;;;;;;;;;5009427;28;20109;-76
2022/12/13 01:20:36;;;;;;;62.90;49.13;;;;;;;;;;5016009;28;20037;-75
2022/12/13 01:23:02;;;;;;;79.43;60.20;;;;;;;;;;5014600;27;20441;-74
2022/12/13 01:25:27;;;;;;;77.03;56.80;;;;;;;;;;5006958;28;20413;-74
2022/12/13 01:27:52;;;;;;;66.95;51.75;;;;;;;;;;5013969;28;20121;-77
2022/12/13 01:30:18;;;;;;;48.08;39.65;;;;;;;;;;5010018;28;20417;-77
2022/12/13 01:32:43;;;;;;;43.75;36.53;;;;;;;;;;5006388;28;24156;-76
2022/12/13 01:35:08;;;;;;;58.22;46.80;;;;;;;;;;5013941;28;20116;-75
2022/12/13 01:37:35;;;;;;;86.68;64.10;;;;;;;;;;5016338;28;20034;-75
2022/12/13 01:40:01;;;;;;;82.32;61.67;;;;;;;;;;5006432;28;20037;-75
2022/12/13 01:42:27;;;;;;;91.88;67.90;;;;;;;;;;5008040;28;20022;-75
2022/12/13 01:45:02;;;;;;;94.00;70.90;;;;;;;;;;5008417;28;20026;-74
2022/12/13 01:47:38;;;;;;;45.65;36.10;;;;;;;;;;5006828;28;20409;-75
2022/12/13 01:50:06;;;;;;;60.33;48.28;;;;;;;;;;5012243;28;20022;-74
2022/12/13 01:52:32;;;;;;;68.72;55.53;;;;;;;;;;5012078;28;20018;-75
2022/12/13 01:54:59;;;;;;;53.13;44.33;;;;;;;;;;5011300;28;20898;-74
2022/12/13 01:57:25;;;;;;;48.90;41.20;;;;;;;;;;5014407;28;20033;-76
2022/12/13 01:59:50;;;;;;;74.10;56.42;;;;;;;;;;5003358;28;20056;-74
2022/12/13 02:02:16;;;;;;;67.07;52.90;;;;;;;;;;5005662;28;20061;-75
2022/12/13 02:04:53;;;;;;;60.33;48.17;;;;;;;;;;5013202;28;20034;-74
2022/12/13 02:07:20;;;;;;;66.13;54.92;;;;;;;;;;5003248;28;20384;-74
2022/12/13 02:09:46;;;;;;;63.03;50.75;;;;;;;;;;5014757;28;20086;-74
2022/12/13 02:12:12;;;;;;;64.05;53.72;;;;;;;;;;5016593;28;20026;-74
2022/12/13 02:14:39;;;;;;;52.95;45.78;;;;;;;;;;5014048;28;20606;-74
2022/12/13 02:17:26;;;;;;;47.13;39.25;;;;;;;;;;5002670;28;20029;-75
2022/12/13 02:20:20;;;;;;;43.88;36.72;;;;;;;;;;5004221;27;20059;-77
2022/12/13 02:22:46;;;;;;;65.55;54.60;;;;;;;;;;4966725;28;20081;-77
2022/12/13 02:25:29;;;;;;;150.13;87.35;;;;;;;;;;4968623;28;20433;-75
2022/12/13 02:28:00;;;;;;;39.90;32.15;;;;;;;;;;4964877;28;20464;-74
2022/12/13 02:30:34;;;;;;;46.50;40.92;;;;;;;;;;4959309;28;20568;-75
2022/12/13 02:33:02;;;;;;;30.65;27.33;;;;;;;;;;4956642;28;20366;-76
2022/12/13 02:35:36;;;;;;;31.75;28.30;;;;;;;;;;4955343;28;20039;-74
2022/12/13 02:38:07;;;;;;;31.13;27.73;;;;;;;;;;4951236;28;20027;-76
2022/12/13 02:40:36;;;;;;;33.20;29.70;;;;;;;;;;4964698;28;20089;-77
2022/12/13 02:43:10;;;;;;;57.10;50.15;;;;;;;;;;4966055;28;20342;-74
2022/12/13 02:45:46;;;;;;;70.32;56.72;;;;;;;;;;4965662;28;20120;-75
2022/12/13 02:48:13;;;;;;;67.30;53.30;;;;;;;;;;4939592;28;20046;-77
2022/12/13 02:50:40;;;;;;;53.30;43.83;;;;;;;;;;4952628;28;20557;-75
2022/12/13 02:53:05;;;;;;;48.08;40.28;;;;;;;;;;4956119;28;20126;-75
2022/12/13 02:55:34;;;;;;;49.25;41.33;;;;;;;;;;4965494;28;20130;-78
2022/12/13 02:57:59;;;;;;;35.20;30.95;;;;;;;;;;4968597;28;20046;-75
2022/12/13 03:00:38;;;;;;;41.97;35.88;;;;;;;;;;5014512;28;20026;-77
2022/12/13 03:03:17;;;;;;;48.77;39.20;;;;;;;;;;5013666;28;20033;-75
2022/12/13 03:08:51;;;;;;;43.75;38.03;;;;;;;;;;5005395;28;20053;-75
2022/12/13 03:11:18;;;;;;;42.67;35.88;;;;;;;;;;5009018;28;20516;-74
2022/12/13 03:13:50;;;;;;;42.08;35.33;;;;;;;;;;5009665;28;20120;-74
2022/12/13 03:16:27;;;;;;;35.97;32.03;;;;;;;;;;5006201;28;20037;-75
2022/12/13 03:18:56;;;;;;;34.40;30.15;;;;;;;;;;5013690;28;20053;-76
2022/12/13 03:21:21;;;;;;;35.50;30.05;;;;;;;;;;5008192;28;20107;-74
2022/12/13 03:23:47;;;;;;;43.65;35.30;;;;;;;;;;5005909;28;20034;-76
2022/12/13 03:26:16;;;;;;;39.47;33.88;;;;;;;;;;5017329;28;20398;-76
2022/12/13 03:28:41;;;;;;;45.67;39.67;;;;;;;;;;5013662;28;20041;-75
2022/12/13 03:31:06;;;;;;;79.88;69.80;;;;;;;;;;5008529;28;20101;-75
2022/12/13 03:33:33;;;;;;;70.78;62.97;;;;;;;;;;5001939;28;20109;-78
2022/12/13 03:35:59;;;;;;;75.22;65.82;;;;;;;;;;5011264;28;20034;-76
2022/12/13 03:38:25;;;;;;;55.78;48.80;;;;;;;;;;5009292;28;20038;-75
2022/12/13 03:40:52;;;;;;;38.92;32.17;;;;;;;;;;5004913;28;20090;-74
2022/12/13 03:43:18;;;;;;;32.72;27.45;;;;;;;;;;5011159;28;20104;-77
2022/12/13 03:45:43;;;;;;;35.40;31.42;;;;;;;;;;5008852;28;20477;-76
2022/12/13 03:48:08;;;;;;;30.35;27.05;;;;;;;;;;5016632;28;20087;-75
2022/12/13 03:50:34;;;;;;;35.78;31.88;;;;;;;;;;5011489;28;20039;-75
2022/12/13 03:53:00;;;;;;;35.40;30.70;;;;;;;;;;5006772;28;20030;-75
2022/12/13 03:55:26;;;;;;;35.50;29.20;;;;;;;;;;5001364;28;20025;-75
2022/12/13 03:57:51;;;;;;;33.00;29.40;;;;;;;;;;5013657;28;20441;-74
2022/12/13 04:00:16;;;;;;;29.85;25.65;;;;;;;;;;5014648;28;20078;-76
2022/12/13 04:02:42;;;;;;;35.83;31.90;;;;;;;;;;5014470;28;20478;-79
2022/12/13 04:05:07;;;;;;;34.33;29.10;;;;;;;;;;5013524;28;20033;-76
2022/12/13 04:07:32;;;;;;;39.63;34.80;;;;;;;;;;5014042;28;20050;-75
2022/12/13 04:09:58;;;;;;;51.17;45.55;;;;;;;;;;5003730;28;20662;-79
2022/12/13 04:15:07;;;;;;;35.60;31.30;;;;;;;;;;5010215;28;20131;-74
2022/12/13 04:17:33;;;;;;;40.17;35.85;;;;;;;;;;5017604;28;20057;-74
2022/12/13 04:19:58;;;;;;;41.50;37.10;;;;;;;;;;5017374;28;20083;-74
2022/12/13 04:22:23;;;;;;;39.72;35.53;;;;;;;;;;5017469;28;20497;-74
2022/12/13 04:24:49;;;;;;;54.75;48.92;;;;;;;;;;5016998;28;20029;-77
2022/12/13 04:27:14;;;;;;;43.22;38.00;;;;;;;;;;5016840;28;20035;-76
2022/12/13 04:29:39;;;;;;;53.58;47.03;;;;;;;;;;5008816;28;20061;-74
2022/12/13 04:32:05;;;;;;;37.55;32.88;;;;;;;;;;5015476;28;20029;-80
2022/12/13 04:34:30;;;;;;;29.98;26.67;;;;;;;;;;5018072;28;20345;-74
2022/12/13 04:36:56;;;;;;;35.50;30.65;;;;;;;;;;5017625;28;20036;-74
2022/12/13 04:39:21;;;;;;;27.48;24.48;;;;;;;;;;5017362;28;20189;-74
2022/12/13 04:41:46;;;;;;;25.77;23.00;;;;;;;;;;5017045;28;20087;-76
2022/12/13 04:44:12;;;;;;;28.88;24.58;;;;;;;;;;5007343;28;20033;-74
2022/12/13 04:46:37;;;;;;;24.17;21.70;;;;;;;;;;5010880;28;20018;-74
2022/12/13 04:49:02;;;;;;;28.20;24.50;;;;;;;;;;5009435;28;21016;-75
2022/12/13 04:51:28;;;;;;;36.92;32.50;;;;;;;;;;5015975;28;21144;-77
2022/12/13 04:53:53;;;;;;;32.60;28.05;;;;;;;;;;5007161;28;20053;-77
2022/12/13 04:56:19;;;;;;;25.23;22.45;;;;;;;;;;5001920;28;20056;-80
2022/12/13 04:58:44;;;;;;;29.77;26.65;;;;;;;;;;5004426;28;20179;-74
2022/12/13 05:01:10;;;;;;;29.15;25.85;;;;;;;;;;5010898;28;20379;-74
2022/12/13 05:03:36;;;;;;;42.42;34.67;;;;;;;;;;5016055;28;20037;-76
2022/12/13 05:06:08;;;;;;;56.13;41.83;;;;;;;;;;5017106;28;20025;-77
2022/12/13 05:08:34;;;;;;;42.25;34.75;;;;;;;;;;5014931;28;20116;-83
2022/12/13 05:11:00;;;;;;;37.28;30.08;;;;;;;;;;5015896;28;20108;-77
2022/12/13 05:13:26;;;;;;;35.03;29.40;;;;;;;;;;5016561;28;20033;-75
2022/12/13 05:15:55;;;;;;;56.53;43.20;;;;;;;;;;5014238;28;20040;-75
2022/12/13 05:18:20;;;;;;;64.78;50.40;;;;;;;;;;5009446;28;20049;-74
2022/12/13 05:20:46;;;;;;;77.38;56.45;;;;;;;;;;5019213;28;20099;-75
2022/12/13 05:23:11;;;;;;;87.25;64.80;;;;;;;;;;5021276;28;20025;-74
2022/12/13 05:25:36;;;;;;;83.63;64.05;;;;;;;;;;5021473;28;20021;-72
2022/12/13 05:28:02;;;;;;;71.75;54.55;;;;;;;;;;5016861;28;20060;-73
2022/12/13 05:30:27;;;;;;;78.82;60.67;;;;;;;;;;5019528;28;20080;-74
2022/12/13 05:32:52;;;;;;;73.63;57.88;;;;;;;;;;5016999;28;20029;-76
2022/12/13 05:35:18;;;;;;;71.55;56.97;;;;;;;;;;5018663;28;20395;-76
2022/12/13 05:37:43;;;;;;;90.90;70.45;;;;;;;;;;5017318;28;20021;-75
2022/12/13 05:40:09;;;;;;;200.65;180.00;;;;;;;;;;5006388;28;20029;-74
2022/12/13 05:42:36;;;;;;;162.07;143.98;;;;;;;;;;5010634;28;20029;-74
2022/12/13 05:45:01;;;;;;;145.20;128.68;;;;;;;;;;5006031;28;20113;-73
2022/12/13 05:47:26;;;;;;;118.57;94.55;;;;;;;;;;5012442;28;20414;-73
2022/12/13 05:49:52;;;;;;;311.70;235.65;;;;;;;;;;5004040;28;20044;-74
2022/12/13 05:52:20;;;;;;;194.43;137.93;;;;;;;;;;5004219;28;20025;-76
2022/12/13 05:54:46;;;;;;;147.25;108.75;;;;;;;;;;5010090;28;21343;-77
2022/12/13 05:57:11;;;;;;;130.60;94.88;;;;;;;;;;5020200;28;20038;-75
2022/12/13 05:59:36;;;;;;;111.57;82.35;;;;;;;;;;5019292;28;20025;-75
2022/12/13 06:02:02;;;;;;;156.38;114.50;;;;;;;;;;5018081;28;20021;-74
2022/12/13 06:04:27;;;;;;;223.05;165.65;;;;;;;;;;5015985;28;20100;-74
2022/12/13 06:06:53;;;;;;;255.65;179.50;;;;;;;;;;5017899;28;20029;-79
2022/12/13 06:09:18;;;;;;;292.67;211.32;;;;;;;;;;5016201;28;20679;-74
2022/12/13 06:11:44;;;;;;;276.42;194.25;;;;;;;;;;5022783;28;20030;-77
2022/12/13 06:14:09;;;;;;;311.48;222.18;;;;;;;;;;5011849;28;20425;-77
2022/12/13 06:16:34;;;;;;;213.05;162.93;;;;;;;;;;5010015;28;20038;-74
2022/12/13 06:19:00;;;;;;;167.02;131.00;;;;;;;;;;5017587;28;20030;-75
2022/12/13 06:21:25;;;;;;;173.30;131.50;;;;;;;;;;5014341;28;20029;-74
2022/12/13 06:23:51;;;;;;;118.47;90.93;;;;;;;;;;5017398;28;20623;-74
2022/12/13 06:26:16;;;;;;;118.25;92.18;;;;;;;;;;5017016;28;20114;-76
2022/12/13 06:28:41;;;;;;;138.27;103.25;;;;;;;;;;5013085;28;20044;-74
2022/12/13 06:31:07;;;;;;;129.20;96.05;;;;;;;;;;5009391;28;20056;-78
2022/12/13 06:33:35;;;;;;;124.57;94.22;;;;;;;;;;5017605;28;20045;-73
2022/12/13 06:36:01;;;;;;;125.05;98.65;;;;;;;;;;5018145;28;20033;-74
2022/12/13 06:38:26;;;;;;;134.48;107.65;;;;;;;;;;5015172;28;20033;-73
2022/12/13 06:40:52;;;;;;;218.68;153.95;;;;;;;;;;5018240;28;20329;-74
2022/12/13 06:43:20;;;;;;;307.60;217.35;;;;;;;;;;5016304;28;20056;-72
2022/12/13 06:45:46;;;;;;;271.95;194.90;;;;;;;;;;5016838;28;20056;-73
2022/12/13 06:48:11;;;;;;;179.32;146.90;;;;;;;;;;5019462;28;20474;-76
2022/12/13 06:50:36;;;;;;;164.07;132.10;;;;;;;;;;5017091;28;20021;-75
2022/12/13 06:53:02;;;;;;;178.20;140.40;;;;;;;;;;5018531;28;20093;-75
2022/12/13 06:55:28;;;;;;;354.02;255.02;;;;;;;;;;5019025;28;20120;-76
2022/12/13 06:57:55;;;;;;;351.17;255.13;;;;;;;;;;5018405;28;20051;-72
2022/12/13 07:00:20;;;;;;;160.98;123.10;;;;;;;;;;5018784;28;20086;-72
2022/12/13 07:02:50;;;;;;;162.52;122.30;;;;;;;;;;5018771;28;20041;-75
2022/12/13 07:05:15;;;;;;;171.18;130.10;;;;;;;;;;5018641;27;20086;-74
2022/12/13 07:07:41;;;;;;;153.48;118.70;;;;;;;;;;5018658;28;20053;-73
2022/12/13 07:10:06;;;;;;;133.82;105.40;;;;;;;;;;5017734;28;20132;-74
2022/12/13 07:12:31;;;;;;;144.98;110.38;;;;;;;;;;5016892;28;20037;-73
2022/12/13 07:14:57;;;;;;;169.45;134.88;;;;;;;;;;5018474;28;20101;-75
2022/12/13 07:17:22;;;;;;;153.80;127.35;;;;;;;;;;5014991;28;20104;-75
2022/12/13 07:19:47;;;;;;;134.27;109.70;;;;;;;;;;5015909;28;20057;-72
2022/12/13 07:22:13;;;;;;;165.95;134.13;;;;;;;;;;5017242;28;20120;-76
2022/12/13 07:24:38;;;;;;;195.65;160.40;;;;;;;;;;5018065;28;20117;-74
2022/12/13 07:27:03;;;;;;;193.63;161.15;;;;;;;;;;5018536;28;20053;-77
2022/12/13 07:29:29;;;;;;;167.13;141.15;;;;;;;;;;5017347;28;20449;-74
2022/12/13 07:31:54;;;;;;;241.38;204.15;;;;;;;;;;5018379;28;20405;-73
2022/12/13 07:34:19;;;;;;;170.80;136.10;;;;;;;;;;5018777;28;20025;-72
2022/12/13 07:36:45;;;;;;;190.05;153.07;;;;;;;;;;5018952;28;20369;-73
2022/12/13 07:39:10;;;;;;;622.60;463.45;;;;;;;;;;5018139;28;20026;-75
2022/12/13 07:41:36;;;;;;;592.55;461.23;;;;;;;;;;5019036;28;20109;-75
2022/12/13 07:44:01;;;;;;;434.27;330.92;;;;;;;;;;5017518;28;20030;-75
2022/12/13 07:46:26;;;;;;;107.97;83.82;;;;;;;;;;5016836;28;20041;-73
2022/12/13 07:48:52;;;;;;;243.80;175.05;;;;;;;;;;5018435;28;20328;-74
2022/12/13 07:51:17;;;;;;;324.90;220.48;;;;;;;;;;5016236;28;20037;-73
2022/12/13 07:53:42;;;;;;;484.92;347.98;;;;;;;;;;5018276;28;20029;-73
2022/12/13 07:56:09;;;;;;;190.93;140.63;;;;;;;;;;5016974;28;20022;-76
2022/12/13 07:58:35;;;;;;;79.25;65.43;;;;;;;;;;5019098;28;20333;-71
2022/12/13 08:01:01;;;;;;;466.90;350.15;;;;;;;;;;5019260;28;20789;-75
2022/12/13 08:03:27;;;;;;;236.35;178.95;;;;;;;;;;5016326;28;20534;-76
2022/12/13 08:06:01;;;;;;;119.35;91.32;;;;;;;;;;5018020;28;20038;-74
2022/12/13 08:08:27;;;;;;;199.07;146.20;;;;;;;;;;5014333;28;20204;-74
2022/12/13 08:10:52;;;;;;;229.75;182.57;;;;;;;;;;5018804;28;20424;-73
2022/12/13 08:13:17;;;;;;;214.30;166.23;;;;;;;;;;5017365;28;20036;-76
2022/12/13 08:15:43;;;;;;;145.32;117.78;;;;;;;;;;5018875;28;20040;-75
2022/12/13 08:18:08;;;;;;;199.27;163.35;;;;;;;;;;5016965;28;20072;-73
2022/12/13 08:20:33;;;;;;;130.77;106.53;;;;;;;;;;5015659;28;20479;-71
2022/12/13 08:22:59;;;;;;;82.47;68.55;;;;;;;;;;5017771;28;20437;-72
2022/12/13 08:25:24;;;;;;;106.40;92.80;;;;;;;;;;5018487;28;20073;-75
2022/12/13 08:27:50;;;;;;;79.03;65.22;;;;;;;;;;5015570;28;20025;-71
2022/12/13 08:30:15;;;;;;;55.78;48.13;;;;;;;;;;5018506;28;20025;-71
2022/12/13 08:32:41;;;;;;;72.97;62.25;;;;;;;;;;5018383;28;20037;-75
2022/12/13 08:35:06;;;;;;;67.55;55.67;;;;;;;;;;5016612;28;20030;-74
2022/12/13 08:37:31;;;;;;;70.00;51.85;;;;;;;;;;5016719;28;20034;-73
2022/12/13 08:39:57;;;;;;;70.57;59.60;;;;;;;;;;5019438;28;20033;-74
2022/12/13 08:42:24;;;;;;;40.03;35.88;;;;;;;;;;5018554;28;20148;-70
2022/12/13 08:44:50;;;;;;;45.72;38.90;;;;;;;;;;5017850;28;20097;-75
2022/12/13 08:47:15;;;;;;;35.65;31.70;;;;;;;;;;5014235;28;20080;-76
2022/12/13 08:49:41;;;;;;;46.22;41.22;;;;;;;;;;5017393;28;20061;-75
2022/12/13 08:52:06;;;;;;;51.55;45.35;;;;;;;;;;5020837;28;20387;-73
2022/12/13 08:54:32;;;;;;;44.17;37.95;;;;;;;;;;5019769;28;20033;-75
2022/12/13 08:56:57;;;;;;;50.70;42.55;;;;;;;;;;5020177;28;20033;-73
2022/12/13 08:59:24;;;;;;;78.60;61.70;;;;;;;;;;5022337;28;20088;-72
2022/12/13 09:01:49;;;;;;;62.03;47.53;;;;;;;;;;5021683;28;20026;-73
2022/12/13 09:04:14;;;;;;;71.57;56.47;;;;;;;;;;5023584;28;20429;-74
2022/12/13 09:06:41;;;;;;;55.03;45.17;;;;;;;;;;5021656;28;20480;-76
2022/12/13 09:09:06;;;;;;;61.10;48.95;;;;;;;;;;5019794;28;20049;-74
2022/12/13 09:11:32;;;;;;;55.63;43.88;;;;;;;;;;5020346;28;20074;-76
2022/12/13 09:13:57;;;;;;;53.60;41.92;;;;;;;;;;5020096;28;20026;-74
2022/12/13 09:16:22;;;;;;;47.13;40.08;;;;;;;;;;5018503;28;20086;-74
2022/12/13 09:18:48;;;;;;;40.53;34.40;;;;;;;;;;5020845;28;20045;-74
2022/12/13 09:21:14;;;;;;;30.58;26.65;;;;;;;;;;5019671;28;20132;-74
2022/12/13 09:23:40;;;;;;;47.88;41.45;;;;;;;;;;5019948;28;20112;-74
2022/12/13 09:26:06;;;;;;;45.38;39.33;;;;;;;;;;5020353;28;20025;-75
2022/12/13 09:28:33;;;;;;;44.83;37.85;;;;;;;;;;5020813;28;20376;-77
2022/12/13 09:30:59;;;;;;;39.25;33.53;;;;;;;;;;5019282;28;20027;-75
2022/12/13 09:33:24;;;;;;;81.03;65.05;;;;;;;;;;5020556;28;20033;-73
2022/12/13 09:35:50;;;;;;;58.00;49.42;;;;;;;;;;5020509;28;20022;-75
2022/12/13 09:38:16;;;;;;;64.22;54.55;;;;;;;;;;5020394;28;20053;-76
2022/12/13 09:40:42;;;;;;;30.45;26.83;;;;;;;;;;5020323;28;20088;-73
2022/12/13 09:43:10;;;;;;;33.08;29.48;;;;;;;;;;5018970;28;20026;-73
2022/12/13 09:45:36;;;;;;;42.40;36.42;;;;;;;;;;5018765;28;20771;-74
2022/12/13 09:48:01;;;;;;;50.30;42.60;;;;;;;;;;5018555;28;20112;-74
2022/12/13 09:50:33;;;;;;;32.25;28.85;;;;;;;;;;5021749;28;20037;-76
2022/12/13 09:53:00;;;;;;;33.05;27.63;;;;;;;;;;5020519;28;20040;-74
2022/12/13 09:55:27;;;;;;;36.33;31.02;;;;;;;;;;5020507;28;20063;-76
2022/12/13 09:57:53;;;;;;;35.72;30.40;;;;;;;;;;5018027;28;20129;-74
2022/12/13 10:00:20;;;;;;;29.48;25.73;;;;;;;;;;5020551;28;20832;-74
2022/12/13 10:02:46;;;;;;;27.42;24.30;;;;;;;;;;5018442;28;20133;-74
2022/12/13 10:05:14;;;;;;;57.67;51.70;;;;;;;;;;5019908;28;20105;-74
2022/12/13 10:07:40;;;;;;;37.88;30.58;;;;;;;;;;5018569;28;20380;-73
2022/12/13 10:10:05;;;;;;;66.72;57.17;;;;;;;;;;5018987;28;20033;-72
2022/12/13 10:12:31;;;;;;;44.33;38.88;;;;;;;;;;5018868;28;20025;-73
2022/12/13 10:14:58;;;;;;;50.13;43.33;;;;;;;;;;5019100;28;20083;-76
2022/12/13 10:17:26;;;;;;;55.22;49.40;;;;;;;;;;5019062;28;20040;-74
2022/12/13 10:19:51;;;;;;;40.60;35.83;;;;;;;;;;5020128;28;20033;-73
2022/12/13 10:22:18;;;;;;;60.95;53.95;;;;;;;;;;5019484;28;20032;-74
2022/12/13 10:24:56;;;;;;;46.00;41.22;;;;;;;;;;5021074;28;20026;-73
2022/12/13 10:27:28;;;;;;;51.88;45.92;;;;;;;;;;5017953;28;20448;-73
2022/12/13 10:29:58;;;;;;;61.58;49.67;;;;;;;;;;5019214;28;20069;-74
2022/12/13 10:32:23;;;;;;;;;;;;;;;;;;5019650;28;20034;-74
2022/12/13 10:34:49;;;;;;;84.67;65.27;;;;;;;;;;5019722;28;19924;-75
2022/12/13 10:37:23;;;;;;;91.55;71.28;;;;;;;;;;5020357;28;20270;-75
2022/12/13 10:39:48;;;;;;;63.03;52.63;;;;;;;;;;5020243;28;20430;-73
2022/12/13 10:42:15;;;;;;;58.90;48.10;;;;;;;;;;5018968;28;20044;-74
2022/12/13 10:44:41;;;;;;;182.60;129.60;;;;;;;;;;5019381;28;20440;-74
2022/12/13 10:47:09;;;;;;;102.45;76.95;;;;;;;;;;5018469;28;20037;-74
2022/12/13 10:49:35;;;;;;;65.80;54.95;;;;;;;;;;5019459;28;20069;-73
2022/12/13 10:52:00;;;;;;;122.60;91.30;;;;;;;;;;5019962;28;20063;-74
2022/12/13 10:54:30;;;;;;;66.55;55.00;;;;;;;;;;5018411;28;20460;-74
2022/12/13 10:56:58;;;;;;;57.30;51.05;;;;;;;;;;5017106;28;20037;-76
2022/12/13 10:59:34;;;;;;;52.78;44.60;;;;;;;;;;5017199;28;20066;-77
2022/12/13 11:02:02;;;;;;;71.50;60.55;;;;;;;;;;5016911;28;20397;-78
2022/12/13 11:04:32;;;;;;;83.82;70.65;;;;;;;;;;5019871;28;20787;-76
2022/12/13 11:07:19;;;;;;;85.53;72.70;;;;;;;;;;5016600;28;20048;-75
2022/12/13 11:09:44;;;;;;;95.38;80.82;;;;;;;;;;5016476;28;20472;-74
2022/12/13 11:12:12;;;;;;;72.85;63.83;;;;;;;;;;5019151;28;20052;-74
2022/12/13 11:14:40;;;;;;;80.70;70.20;;;;;;;;;;5016889;28;20116;-73
2022/12/13 11:17:13;;;;;;;134.73;103.45;;;;;;;;;;5018894;28;20033;-73
2022/12/13 11:19:43;;;;;;;160.93;111.30;;;;;;;;;;5019051;28;20092;-73
2022/12/13 11:22:08;;;;;;;;;;;;;;;;;;5016707;28;20090;-79
2022/12/13 11:24:36;;;;;;;90.13;75.80;;;;;;;;;;5017593;28;19909;-78
2022/12/13 11:27:23;;;;;;;95.78;83.00;;;;;;;;;;5019592;28;20057;-73
2022/12/13 11:29:54;;;;;;;65.22;57.40;;;;;;;;;;5017364;28;20901;-73
2022/12/13 11:32:25;;;;;;;58.20;50.80;;;;;;;;;;5019453;28;20076;-72
2022/12/13 11:35:26;;;;;;;58.78;52.30;;;;;;;;;;5016946;28;20045;-75
2022/12/13 11:38:15;;;;;;;60.67;53.45;;;;;;;;;;5016303;28;20029;-76
2022/12/13 11:40:41;;;;;;;54.40;46.97;;;;;;;;;;5018106;28;20045;-74
2022/12/13 11:43:23;;;;;;;42.08;37.58;;;;;;;;;;5018455;28;20108;-72
2022/12/13 11:45:55;;;;;;;34.90;30.73;;;;;;;;;;5018946;28;20033;-74
2022/12/13 11:48:41;;;;;;;39.45;33.03;;;;;;;;;;5019573;27;20181;-71
2022/12/13 11:51:08;;;;;;;35.63;31.98;;;;;;;;;;5015315;28;20452;-74
2022/12/13 11:53:39;;;;;;;37.05;33.15;;;;;;;;;;5017995;28;20044;-73
2022/12/13 11:56:05;;;;;;;36.28;32.17;;;;;;;;;;5018242;28;20033;-73
2022/12/13 11:58:49;;;;;;;30.98;27.67;;;;;;;;;;5018771;28;20034;-73
2022/12/13 12:01:23;;;;;;;33.20;29.60;;;;;;;;;;5016841;28;20433;-78
2022/12/13 12:03:56;;;;;;;35.42;29.55;;;;;;;;;;5019275;28;20072;-74
2022/12/13 12:06:29;;;;;;;35.78;28.85;;;;;;;;;;5016871;28;20033;-74
2022/12/13 12:08:56;;;;;;;188.52;87.97;;;;;;;;;;5017985;28;20627;-74
2022/12/13 12:11:40;;;;;;;184.80;77.63;;;;;;;;;;5017378;28;20033;-73
2022/12/13 12:14:14;;;;;;;139.30;61.88;;;;;;;;;;5017955;28;20033;-75
2022/12/13 12:16:45;;;;;;;125.50;69.28;;;;;;;;;;5016867;28;20033;-74
2022/12/13 12:19:19;;;;;;;124.95;72.40;;;;;;;;;;5016918;28;20033;-73
2022/12/13 12:21:44;;;;;;;53.03;39.35;;;;;;;;;;5018938;28;20129;-76
2022/12/13 12:24:13;;;;;;;49.85;38.67;;;;;;;;;;5018197;28;20496;-74
2022/12/13 12:26:58;;;;;;;116.25;64.43;;;;;;;;;;5021139;28;20025;-72
2022/12/13 12:29:47;;;;;;;214.55;109.55;;;;;;;;;;5021513;28;20051;-74
2022/12/13 12:32:22;;;;;;;39.05;28.20;;;;;;;;;;5037452;28;20049;-77
2022/12/13 12:35:09;;;;;;;92.72;74.50;;;;;;;;;;5021067;28;20036;-72
2022/12/13 12:37:40;;;;;;;59.55;46.10;;;;;;;;;;5021028;28;21216;-73
2022/12/13 12:40:17;;;;;;;34.38;30.15;;;;;;;;;;5020650;28;20101;-72
2022/12/13 12:42:53;;;;;;;66.57;57.05;;;;;;;;;;5019921;28;20033;-72
2022/12/13 12:45:25;;;;;;;42.72;37.40;;;;;;;;;;5021361;28;20022;-73
2022/12/13 12:47:50;;;;;;;44.20;38.92;;;;;;;;;;5021570;28;20022;-74
2022/12/13 12:50:25;;;;;;;61.35;53.30;;;;;;;;;;5021847;28;20048;-73
2022/12/13 12:53:10;;;;;;;42.25;35.10;;;;;;;;;;5018458;28;20441;-74
2022/12/13 12:55:48;;;;;;;44.03;37.33;;;;;;;;;;5013359;28;20018;-72
2022/12/13 12:58:23;;;;;;;87.93;62.50;;;;;;;;;;5011110;28;20117;-72
2022/12/13 13:01:09;;;;;;;35.15;29.27;;;;;;;;;;5017862;28;20029;-72
2022/12/13 13:03:35;;;;;;;46.33;39.40;;;;;;;;;;5020969;28;20116;-73
2022/12/13 13:06:02;;;;;;;43.65;36.20;;;;;;;;;;5019994;28;20121;-74
2022/12/13 13:08:30;;;;;;;43.40;36.95;;;;;;;;;;5019863;28;20511;-73
2022/12/13 13:10:59;;;;;;;40.22;32.33;;;;;;;;;;5018258;28;20341;-74
2022/12/13 13:13:47;;;;;;;43.60;38.78;;;;;;;;;;5015464;28;20021;-74
2022/12/13 13:16:27;;;;;;;43.67;38.90;;;;;;;;;;5018476;28;20368;-75
2022/12/13 13:18:54;;;;;;;43.03;37.65;;;;;;;;;;5021481;28;20033;-76
2022/12/13 13:21:22;;;;;;;50.13;44.70;;;;;;;;;;5020926;28;20116;-74
2022/12/13 13:24:14;;;;;;;61.83;53.28;;;;;;;;;;5020286;28;20469;-78
2022/12/13 13:26:43;;;;;;;74.97;64.90;;;;;;;;;;5019456;28;20420;-73
2022/12/13 13:29:24;;;;;;;69.53;60.25;;;;;;;;;;5021471;28;20033;-75
2022/12/13 13:31:58;;;;;;;62.15;53.80;;;;;;;;;;5018972;28;20393;-75
2022/12/13 13:34:27;;;;;;;51.28;43.58;;;;;;;;;;5018913;28;20032;-76
2022/12/13 15:14:29;;;;;;;24.50;21.92;;;;;;;;;;5120081;27;20437;-73
2022/12/13 15:16:55;;;;;;;28.08;25.15;;;;;;;;;;5113045;27;20047;-76
2022/12/13 15:19:23;;;;;;;32.92;29.73;;;;;;;;;;5087712;27;20106;-75
2022/12/13 15:21:59;;;;;;;33.10;29.77;;;;;;;;;;5044157;28;20017;-73
2022/12/13 15:24:27;;;;;;;108.03;73.00;;;;;;;;;;5049798;28;20032;-73
2022/12/13 15:26:54;;;;;;;58.95;43.78;;;;;;;;;;5053803;28;20102;-76
2022/12/13 15:29:21;;;;;;;50.67;38.53;;;;;;;;;;5051163;28;20460;-73
2022/12/13 15:31:47;;;;;;;109.57;75.22;;;;;;;;;;5047360;28;20036;-74
2022/12/13 15:34:20;;;;;;;46.15;37.25;;;;;;;;;;5061887;28;20017;-74
2022/12/13 15:36:45;;;;;;;70.57;53.10;;;;;;;;;;5060918;28;20115;-75
2022/12/13 15:39:11;;;;;;;108.90;79.85;;;;;;;;;;5059323;28;20161;-75
2022/12/13 15:41:43;;;;;;;139.93;99.10;;;;;;;;;;5044902;28;20414;-74
2022/12/13 15:44:18;;;;;;;103.25;74.22;;;;;;;;;;5045235;28;20021;-76
2022/12/13 15:46:44;;;;;;;46.50;36.53;;;;;;;;;;5046448;28;20040;-73
2022/12/13 15:49:18;;;;;;;70.97;61.40;;;;;;;;;;5046321;28;20044;-74
2022/12/13 15:51:54;;;;;;;65.85;58.65;;;;;;;;;;5048159;28;20025;-75
2022/12/13 15:54:22;;;;;;;46.85;41.85;;;;;;;;;;5044055;28;20064;-78
2022/12/13 15:57:00;;;;;;;108.78;93.47;;;;;;;;;;5043935;28;20194;-75
2022/12/13 15:59:35;;;;;;;118.22;100.30;;;;;;;;;;5055717;28;20031;-77
2022/12/13 16:02:01;;;;;;;351.23;230.18;;;;;;;;;;5059764;28;20039;-75